sensor_id;sensor_type;location;lat;lon;timestamp;temperature;humidity
51500;DHT22;39101;53.478;6.158;2023-05-10T00:00:39;12.80;99.90
51500;DHT22;39101;53.478;6.158;2023-05-10T00:03:04;12.80;99.90
51500;DHT22;39101;53.478;6.158;2023-05-10T00:05:31;12.70;99.90
51500;DHT22;39101;53.478;6.158;2023-05-10T00:07:57;12.60;99.90
51500;DHT22;39101;53.478;6.158;2023-05-10T00:10:23;12.40;99.90
51500;DHT22;39101;53.478;6.158;2023-05-10T00:12:48;12.50;99.90
51500;DHT22;39101;53.478;6.158;2023-05-10T00:15:14;12.70;99.90
51500;DHT22;39101;53.478;6.158;2023-05-10T00:17:39;12.70;99.90
51500;DHT22;39101;53.478;6.158;2023-05-10T00:20:06;12.40;99.90
51500;DHT22;39101;53.478;6.158;2023-05-10T00:22:32;12.40;99.90
51500;DHT22;39101;53.478;6.158;2023-05-10T00:24:58;12.30;99.90
51500;DHT22;39101;53.478;6.158;2023-05-10T00:27:24;12.30;99.90
51500;DHT22;39101;53.478;6.158;2023-05-10T00:29:49;12.50;99.90
51500;DHT22;39101;53.478;6.158;2023-05-10T00:32:15;12.40;99.90
51500;DHT22;39101;53.478;6.158;2023-05-10T00:34:41;12.30;99.90
51500;DHT22;39101;53.478;6.158;2023-05-10T00:37:07;12.50;99.90
51500;DHT22;39101;53.478;6.158;2023-05-10T00:39:33;12.40;99.90
51500;DHT22;39101;53.478;6.158;2023-05-10T00:41:58;12.20;99.90
51500;DHT22;39101;53.478;6.158;2023-05-10T00:44:25;12.40;99.90
51500;DHT22;39101;53.478;6.158;2023-05-10T00:46:51;12.40;99.90
51500;DHT22;39101;53.478;6.158;2023-05-10T00:49:16;12.10;99.90
51500;DHT22;39101;53.478;6.158;2023-05-10T00:51:43;12.40;99.90
51500;DHT22;39101;53.478;6.158;2023-05-10T00:54:14;12.40;99.90
51500;DHT22;39101;53.478;6.158;2023-05-10T00:56:40;12.20;99.90
51500;DHT22;39101;53.478;6.158;2023-05-10T00:59:09;12.40;99.90
51500;DHT22;39101;53.478;6.158;2023-05-10T01:01:36;12.30;99.90
51500;DHT22;39101;53.478;6.158;2023-05-10T01:04:02;12.10;99.90
51500;DHT22;39101;53.478;6.158;2023-05-10T01:06:28;12.40;99.90
51500;DHT22;39101;53.478;6.158;2023-05-10T01:08:54;12.20;99.90
51500;DHT22;39101;53.478;6.158;2023-05-10T01:11:21;12.10;99.90
51500;DHT22;39101;53.478;6.158;2023-05-10T01:13:55;12.40;99.90
51500;DHT22;39101;53.478;6.158;2023-05-10T01:16:21;12.20;99.90
51500;DHT22;39101;53.478;6.158;2023-05-10T01:18:48;12.20;99.90
51500;DHT22;39101;53.478;6.158;2023-05-10T01:21:27;12.10;99.90
51500;DHT22;39101;53.478;6.158;2023-05-10T01:35:15;12.20;99.90
51500;DHT22;39101;53.478;6.158;2023-05-10T01:37:46;12.10;99.90
51500;DHT22;39101;53.478;6.158;2023-05-10T01:42:54;12.30;99.90
51500;DHT22;39101;53.478;6.158;2023-05-10T01:46:03;12.30;99.90
51500;DHT22;39101;53.478;6.158;2023-05-10T01:48:23;12.00;99.90
51500;DHT22;39101;53.478;6.158;2023-05-10T01:50:51;12.10;99.90
51500;DHT22;39101;53.478;6.158;2023-05-10T01:53:18;12.10;99.90
51500;DHT22;39101;53.478;6.158;2023-05-10T01:55:52;12.00;99.90
51500;DHT22;39101;53.478;6.158;2023-05-10T01:58:28;12.10;99.90
51500;DHT22;39101;53.478;6.158;2023-05-10T02:00:55;12.10;99.90
51500;DHT22;39101;53.478;6.158;2023-05-10T02:03:25;11.80;99.90
51500;DHT22;39101;53.478;6.158;2023-05-10T02:05:53;11.80;99.90
51500;DHT22;39101;53.478;6.158;2023-05-10T02:08:21;12.00;99.90
51500;DHT22;39101;53.478;6.158;2023-05-10T02:10:50;12.00;99.90
51500;DHT22;39101;53.478;6.158;2023-05-10T02:13:18;11.80;99.90
51500;DHT22;39101;53.478;6.158;2023-05-10T02:15:47;11.70;99.90
51500;DHT22;39101;53.478;6.158;2023-05-10T02:18:13;11.80;99.90
51500;DHT22;39101;53.478;6.158;2023-05-10T02:20:42;11.80;99.90
51500;DHT22;39101;53.478;6.158;2023-05-10T02:23:09;11.90;99.90
51500;DHT22;39101;53.478;6.158;2023-05-10T02:25:35;11.90;99.90
51500;DHT22;39101;53.478;6.158;2023-05-10T02:28:05;11.90;99.90
51500;DHT22;39101;53.478;6.158;2023-05-10T02:30:33;11.70;99.90
51500;DHT22;39101;53.478;6.158;2023-05-10T02:33:00;11.90;99.90
51500;DHT22;39101;53.478;6.158;2023-05-10T02:35:27;12.00;99.90
51500;DHT22;39101;53.478;6.158;2023-05-10T02:37:54;12.00;99.90
51500;DHT22;39101;53.478;6.158;2023-05-10T02:40:21;11.90;99.90
51500;DHT22;39101;53.478;6.158;2023-05-10T02:42:50;11.70;99.90
51500;DHT22;39101;53.478;6.158;2023-05-10T02:45:20;11.80;99.90
51500;DHT22;39101;53.478;6.158;2023-05-10T02:47:47;11.70;99.90
51500;DHT22;39101;53.478;6.158;2023-05-10T02:50:13;11.60;99.90
51500;DHT22;39101;53.478;6.158;2023-05-10T02:52:44;11.90;99.90
51500;DHT22;39101;53.478;6.158;2023-05-10T02:55:12;11.60;99.90
51500;DHT22;39101;53.478;6.158;2023-05-10T02:57:50;11.80;99.90
51500;DHT22;39101;53.478;6.158;2023-05-10T03:00:17;11.80;99.90
51500;DHT22;39101;53.478;6.158;2023-05-10T03:02:42;11.70;99.90
51500;DHT22;39101;53.478;6.158;2023-05-10T03:05:08;11.70;99.90
51500;DHT22;39101;53.478;6.158;2023-05-10T03:07:34;11.80;99.90
51500;DHT22;39101;53.478;6.158;2023-05-10T03:10:00;11.80;99.90
51500;DHT22;39101;53.478;6.158;2023-05-10T03:13:01;11.70;99.90
51500;DHT22;39101;53.478;6.158;2023-05-10T03:18:29;11.60;99.90
51500;DHT22;39101;53.478;6.158;2023-05-10T03:21:03;11.70;99.90
51500;DHT22;39101;53.478;6.158;2023-05-10T03:23:46;11.50;99.90
51500;DHT22;39101;53.478;6.158;2023-05-10T03:26:26;11.70;99.90
51500;DHT22;39101;53.478;6.158;2023-05-10T03:28:52;11.60;99.90
51500;DHT22;39101;53.478;6.158;2023-05-10T03:31:18;11.50;99.90
51500;DHT22;39101;53.478;6.158;2023-05-10T03:33:51;11.40;99.90
51500;DHT22;39101;53.478;6.158;2023-05-10T03:36:17;11.50;99.90
51500;DHT22;39101;53.478;6.158;2023-05-10T03:38:43;11.60;99.90
51500;DHT22;39101;53.478;6.158;2023-05-10T03:41:09;11.60;99.90
51500;DHT22;39101;53.478;6.158;2023-05-10T03:43:35;11.50;99.90
51500;DHT22;39101;53.478;6.158;2023-05-10T03:46:04;11.60;99.90
51500;DHT22;39101;53.478;6.158;2023-05-10T03:48:30;11.60;99.90
51500;DHT22;39101;53.478;6.158;2023-05-10T03:50:57;11.50;99.90
51500;DHT22;39101;53.478;6.158;2023-05-10T03:53:22;11.60;99.90
51500;DHT22;39101;53.478;6.158;2023-05-10T03:55:48;11.40;99.90
51500;DHT22;39101;53.478;6.158;2023-05-10T03:58:14;11.30;99.90
51500;DHT22;39101;53.478;6.158;2023-05-10T04:00:40;11.50;99.90
51500;DHT22;39101;53.478;6.158;2023-05-10T04:03:11;11.60;99.90
51500;DHT22;39101;53.478;6.158;2023-05-10T04:05:36;11.60;99.90
51500;DHT22;39101;53.478;6.158;2023-05-10T04:08:02;11.30;99.90
51500;DHT22;39101;53.478;6.158;2023-05-10T04:10:28;11.40;99.90
51500;DHT22;39101;53.478;6.158;2023-05-10T04:12:54;11.30;99.90
51500;DHT22;39101;53.478;6.158;2023-05-10T04:15:20;11.30;99.90
51500;DHT22;39101;53.478;6.158;2023-05-10T04:17:45;11.30;99.90
51500;DHT22;39101;53.478;6.158;2023-05-10T04:20:11;11.20;99.90
51500;DHT22;39101;53.478;6.158;2023-05-10T04:22:37;11.30;99.90
51500;DHT22;39101;53.478;6.158;2023-05-10T04:25:04;11.30;99.90
51500;DHT22;39101;53.478;6.158;2023-05-10T04:27:30;11.50;99.90
51500;DHT22;39101;53.478;6.158;2023-05-10T04:29:56;11.50;99.90
51500;DHT22;39101;53.478;6.158;2023-05-10T04:32:22;11.50;99.90
51500;DHT22;39101;53.478;6.158;2023-05-10T04:34:48;11.20;99.90
51500;DHT22;39101;53.478;6.158;2023-05-10T04:37:14;11.50;99.90
51500;DHT22;39101;53.478;6.158;2023-05-10T04:39:40;11.30;99.90
51500;DHT22;39101;53.478;6.158;2023-05-10T04:42:05;11.40;99.90
51500;DHT22;39101;53.478;6.158;2023-05-10T04:44:32;11.30;99.90
51500;DHT22;39101;53.478;6.158;2023-05-10T04:46:58;11.20;99.90
51500;DHT22;39101;53.478;6.158;2023-05-10T04:49:23;11.20;99.90
51500;DHT22;39101;53.478;6.158;2023-05-10T04:51:49;11.30;99.90
51500;DHT22;39101;53.478;6.158;2023-05-10T04:54:15;11.20;99.90
51500;DHT22;39101;53.478;6.158;2023-05-10T04:56:40;11.40;99.90
51500;DHT22;39101;53.478;6.158;2023-05-10T04:59:06;11.20;99.90
51500;DHT22;39101;53.478;6.158;2023-05-10T05:01:32;11.40;99.90
51500;DHT22;39101;53.478;6.158;2023-05-10T05:03:58;11.40;99.90
51500;DHT22;39101;53.478;6.158;2023-05-10T05:06:23;11.40;99.90
51500;DHT22;39101;53.478;6.158;2023-05-10T05:08:51;11.10;99.90
51500;DHT22;39101;53.478;6.158;2023-05-10T05:11:19;11.30;99.90
51500;DHT22;39101;53.478;6.158;2023-05-10T05:13:46;11.30;99.90
51500;DHT22;39101;53.478;6.158;2023-05-10T05:16:12;11.30;99.90
51500;DHT22;39101;53.478;6.158;2023-05-10T05:18:38;11.40;99.90
51500;DHT22;39101;53.478;6.158;2023-05-10T05:21:16;11.30;99.90
51500;DHT22;39101;53.478;6.158;2023-05-10T05:23:42;11.10;99.90
51500;DHT22;39101;53.478;6.158;2023-05-10T05:26:08;11.10;99.90
51500;DHT22;39101;53.478;6.158;2023-05-10T05:28:34;11.10;99.90
51500;DHT22;39101;53.478;6.158;2023-05-10T05:31:03;11.30;99.90
51500;DHT22;39101;53.478;6.158;2023-05-10T05:33:28;11.30;99.90
51500;DHT22;39101;53.478;6.158;2023-05-10T05:35:54;11.10;99.90
51500;DHT22;39101;53.478;6.158;2023-05-10T05:38:20;11.20;99.90
51500;DHT22;39101;53.478;6.158;2023-05-10T05:40:45;11.10;99.90
51500;DHT22;39101;53.478;6.158;2023-05-10T05:43:11;11.00;99.90
51500;DHT22;39101;53.478;6.158;2023-05-10T05:45:37;11.00;99.90
51500;DHT22;39101;53.478;6.158;2023-05-10T05:48:02;11.10;99.90
51500;DHT22;39101;53.478;6.158;2023-05-10T05:50:28;11.00;99.90
51500;DHT22;39101;53.478;6.158;2023-05-10T05:52:54;11.00;99.90
51500;DHT22;39101;53.478;6.158;2023-05-10T05:55:20;11.20;99.90
51500;DHT22;39101;53.478;6.158;2023-05-10T05:57:46;11.00;99.90
51500;DHT22;39101;53.478;6.158;2023-05-10T06:00:12;11.30;99.90
51500;DHT22;39101;53.478;6.158;2023-05-10T06:02:38;11.20;99.90
51500;DHT22;39101;53.478;6.158;2023-05-10T06:05:04;11.20;99.90
51500;DHT22;39101;53.478;6.158;2023-05-10T06:07:30;11.20;99.90
51500;DHT22;39101;53.478;6.158;2023-05-10T06:09:55;11.00;99.90
51500;DHT22;39101;53.478;6.158;2023-05-10T06:12:21;11.20;99.90
51500;DHT22;39101;53.478;6.158;2023-05-10T06:14:47;11.00;99.90
51500;DHT22;39101;53.478;6.158;2023-05-10T06:17:12;11.20;99.90
51500;DHT22;39101;53.478;6.158;2023-05-10T06:19:38;11.20;99.90
51500;DHT22;39101;53.478;6.158;2023-05-10T06:22:04;11.00;99.90
51500;DHT22;39101;53.478;6.158;2023-05-10T06:24:29;11.30;99.90
51500;DHT22;39101;53.478;6.158;2023-05-10T06:26:55;11.00;99.90
51500;DHT22;39101;53.478;6.158;2023-05-10T06:29:21;11.20;99.90
51500;DHT22;39101;53.478;6.158;2023-05-10T06:31:46;11.30;99.90
51500;DHT22;39101;53.478;6.158;2023-05-10T06:34:12;11.20;99.90
51500;DHT22;39101;53.478;6.158;2023-05-10T06:36:39;11.30;99.90
51500;DHT22;39101;53.478;6.158;2023-05-10T06:39:04;11.10;99.90
51500;DHT22;39101;53.478;6.158;2023-05-10T06:41:31;11.30;99.90
51500;DHT22;39101;53.478;6.158;2023-05-10T06:43:56;11.40;99.90
51500;DHT22;39101;53.478;6.158;2023-05-10T06:46:22;11.20;99.90
51500;DHT22;39101;53.478;6.158;2023-05-10T06:48:47;11.30;99.90
51500;DHT22;39101;53.478;6.158;2023-05-10T06:51:13;11.40;99.90
51500;DHT22;39101;53.478;6.158;2023-05-10T06:53:39;11.40;99.90
51500;DHT22;39101;53.478;6.158;2023-05-10T06:56:04;11.30;99.90
51500;DHT22;39101;53.478;6.158;2023-05-10T06:58:30;11.50;99.90
51500;DHT22;39101;53.478;6.158;2023-05-10T07:01:02;11.50;99.90
51500;DHT22;39101;53.478;6.158;2023-05-10T07:03:28;11.30;99.90
51500;DHT22;39101;53.478;6.158;2023-05-10T07:06:03;11.30;99.90
51500;DHT22;39101;53.478;6.158;2023-05-10T07:08:35;11.30;99.90
51500;DHT22;39101;53.478;6.158;2023-05-10T07:11:02;11.50;99.90
51500;DHT22;39101;53.478;6.158;2023-05-10T07:13:32;11.30;99.90
51500;DHT22;39101;53.478;6.158;2023-05-10T07:15:58;11.50;99.90
51500;DHT22;39101;53.478;6.158;2023-05-10T07:18:24;11.50;99.90
51500;DHT22;39101;53.478;6.158;2023-05-10T07:20:50;11.40;99.90
51500;DHT22;39101;53.478;6.158;2023-05-10T07:23:16;11.50;99.90
51500;DHT22;39101;53.478;6.158;2023-05-10T07:25:48;11.60;99.90
51500;DHT22;39101;53.478;6.158;2023-05-10T07:28:15;11.50;99.90
51500;DHT22;39101;53.478;6.158;2023-05-10T07:30:42;11.50;99.90
51500;DHT22;39101;53.478;6.158;2023-05-10T07:33:09;11.40;99.90
51500;DHT22;39101;53.478;6.158;2023-05-10T07:35:35;11.70;99.90
51500;DHT22;39101;53.478;6.158;2023-05-10T07:38:01;11.50;99.90
51500;DHT22;39101;53.478;6.158;2023-05-10T07:40:27;11.80;99.90
51500;DHT22;39101;53.478;6.158;2023-05-10T07:42:53;11.90;99.90
51500;DHT22;39101;53.478;6.158;2023-05-10T07:45:19;11.60;99.90
51500;DHT22;39101;53.478;6.158;2023-05-10T07:47:45;11.60;99.90
51500;DHT22;39101;53.478;6.158;2023-05-10T07:50:10;11.70;99.90
51500;DHT22;39101;53.478;6.158;2023-05-10T07:52:36;11.80;99.90
51500;DHT22;39101;53.478;6.158;2023-05-10T07:55:02;11.60;99.90
51500;DHT22;39101;53.478;6.158;2023-05-10T07:57:27;11.60;99.90
51500;DHT22;39101;53.478;6.158;2023-05-10T07:59:53;11.60;99.90
51500;DHT22;39101;53.478;6.158;2023-05-10T08:02:19;11.80;99.90
51500;DHT22;39101;53.478;6.158;2023-05-10T08:04:44;11.80;99.90
51500;DHT22;39101;53.478;6.158;2023-05-10T08:07:10;11.70;99.90
51500;DHT22;39101;53.478;6.158;2023-05-10T08:09:36;11.80;99.90
51500;DHT22;39101;53.478;6.158;2023-05-10T08:12:02;11.90;99.90
51500;DHT22;39101;53.478;6.158;2023-05-10T08:14:29;11.60;99.90
51500;DHT22;39101;53.478;6.158;2023-05-10T08:16:55;11.60;99.90
51500;DHT22;39101;53.478;6.158;2023-05-10T08:19:21;11.70;99.90
51500;DHT22;39101;53.478;6.158;2023-05-10T08:21:48;11.60;99.90
51500;DHT22;39101;53.478;6.158;2023-05-10T08:24:14;11.70;99.90
51500;DHT22;39101;53.478;6.158;2023-05-10T08:26:40;11.60;99.90
51500;DHT22;39101;53.478;6.158;2023-05-10T08:29:06;11.70;99.90
51500;DHT22;39101;53.478;6.158;2023-05-10T08:31:31;11.60;99.90
51500;DHT22;39101;53.478;6.158;2023-05-10T08:33:57;11.70;99.90
51500;DHT22;39101;53.478;6.158;2023-05-10T08:36:23;11.70;99.90
51500;DHT22;39101;53.478;6.158;2023-05-10T08:38:53;11.70;99.90
51500;DHT22;39101;53.478;6.158;2023-05-10T08:41:20;11.70;99.90
51500;DHT22;39101;53.478;6.158;2023-05-10T08:43:47;11.70;99.90
51500;DHT22;39101;53.478;6.158;2023-05-10T08:46:19;11.80;99.90
51500;DHT22;39101;53.478;6.158;2023-05-10T08:48:46;11.80;99.90
51500;DHT22;39101;53.478;6.158;2023-05-10T08:51:18;11.80;99.90
51500;DHT22;39101;53.478;6.158;2023-05-10T08:53:45;11.80;99.90
51500;DHT22;39101;53.478;6.158;2023-05-10T08:56:11;12.00;99.90
51500;DHT22;39101;53.478;6.158;2023-05-10T08:58:38;11.90;99.90
51500;DHT22;39101;53.478;6.158;2023-05-10T09:01:05;11.90;99.90
51500;DHT22;39101;53.478;6.158;2023-05-10T09:03:31;11.80;99.90
51500;DHT22;39101;53.478;6.158;2023-05-10T09:05:57;12.10;99.90
51500;DHT22;39101;53.478;6.158;2023-05-10T09:08:24;12.00;99.90
51500;DHT22;39101;53.478;6.158;2023-05-10T09:10:53;12.10;99.90
51500;DHT22;39101;53.478;6.158;2023-05-10T09:13:20;12.20;99.90
51500;DHT22;39101;53.478;6.158;2023-05-10T09:15:47;12.00;99.90
51500;DHT22;39101;53.478;6.158;2023-05-10T09:18:13;12.20;99.90
51500;DHT22;39101;53.478;6.158;2023-05-10T09:20:39;12.10;99.90
51500;DHT22;39101;53.478;6.158;2023-05-10T09:23:05;12.10;99.90
51500;DHT22;39101;53.478;6.158;2023-05-10T09:25:31;12.20;99.90
51500;DHT22;39101;53.478;6.158;2023-05-10T09:27:59;12.40;99.90
51500;DHT22;39101;53.478;6.158;2023-05-10T09:30:28;12.20;99.90
51500;DHT22;39101;53.478;6.158;2023-05-10T09:32:55;12.50;99.90
51500;DHT22;39101;53.478;6.158;2023-05-10T09:35:22;12.30;99.90
51500;DHT22;39101;53.478;6.158;2023-05-10T09:37:51;12.20;99.90
51500;DHT22;39101;53.478;6.158;2023-05-10T09:40:28;12.30;99.90
51500;DHT22;39101;53.478;6.158;2023-05-10T09:42:59;12.10;99.90
51500;DHT22;39101;53.478;6.158;2023-05-10T09:45:27;12.20;99.90
51500;DHT22;39101;53.478;6.158;2023-05-10T09:47:53;12.10;99.90
51500;DHT22;39101;53.478;6.158;2023-05-10T09:50:20;12.20;99.90
51500;DHT22;39101;53.478;6.158;2023-05-10T09:52:51;12.10;99.90
51500;DHT22;39101;53.478;6.158;2023-05-10T09:55:22;12.30;99.90
51500;DHT22;39101;53.478;6.158;2023-05-10T09:57:49;12.20;99.90
51500;DHT22;39101;53.478;6.158;2023-05-10T10:00:24;12.20;99.90
51500;DHT22;39101;53.478;6.158;2023-05-10T10:02:59;12.20;99.90
51500;DHT22;39101;53.478;6.158;2023-05-10T10:05:33;12.40;99.90
51500;DHT22;39101;53.478;6.158;2023-05-10T10:08:00;12.30;99.90
51500;DHT22;39101;53.478;6.158;2023-05-10T10:10:27;12.30;99.90
51500;DHT22;39101;53.478;6.158;2023-05-10T10:12:53;12.40;99.90
51500;DHT22;39101;53.478;6.158;2023-05-10T10:15:21;12.30;99.90
51500;DHT22;39101;53.478;6.158;2023-05-10T10:17:48;12.30;99.90
51500;DHT22;39101;53.478;6.158;2023-05-10T10:20:15;12.30;99.90
51500;DHT22;39101;53.478;6.158;2023-05-10T10:22:41;12.20;99.90
51500;DHT22;39101;53.478;6.158;2023-05-10T10:25:08;12.40;99.90
51500;DHT22;39101;53.478;6.158;2023-05-10T10:35:55;12.30;99.90
51500;DHT22;39101;53.478;6.158;2023-05-10T10:38:23;12.30;99.90
51500;DHT22;39101;53.478;6.158;2023-05-10T10:41:02;12.30;99.90
51500;DHT22;39101;53.478;6.158;2023-05-10T10:43:28;12.30;99.90
51500;DHT22;39101;53.478;6.158;2023-05-10T10:48:40;12.40;99.90
51500;DHT22;39101;53.478;6.158;2023-05-10T10:51:06;12.40;99.90
51500;DHT22;39101;53.478;6.158;2023-05-10T10:53:32;12.50;99.90
51500;DHT22;39101;53.478;6.158;2023-05-10T10:56:09;12.50;99.90
51500;DHT22;39101;53.478;6.158;2023-05-10T10:58:37;12.50;99.90
51500;DHT22;39101;53.478;6.158;2023-05-10T11:01:17;12.30;99.90
51500;DHT22;39101;53.478;6.158;2023-05-10T11:09:06;12.20;99.90
51500;DHT22;39101;53.478;6.158;2023-05-10T11:11:32;12.20;99.90
51500;DHT22;39101;53.478;6.158;2023-05-10T11:14:04;12.20;99.90
51500;DHT22;39101;53.478;6.158;2023-05-10T11:16:42;12.30;99.90
51500;DHT22;39101;53.478;6.158;2023-05-10T11:19:11;12.20;99.90
51500;DHT22;39101;53.478;6.158;2023-05-10T11:24:22;12.20;99.90
51500;DHT22;39101;53.478;6.158;2023-05-10T11:26:53;12.20;99.90
51500;DHT22;39101;53.478;6.158;2023-05-10T11:29:19;12.30;99.90
51500;DHT22;39101;53.478;6.158;2023-05-10T11:31:46;12.40;99.90
51500;DHT22;39101;53.478;6.158;2023-05-10T11:34:31;12.30;99.90
51500;DHT22;39101;53.478;6.158;2023-05-10T11:37:00;12.20;99.90
51500;DHT22;39101;53.478;6.158;2023-05-10T11:39:30;12.20;99.90
51500;DHT22;39101;53.478;6.158;2023-05-10T11:41:56;12.20;99.90
51500;DHT22;39101;53.478;6.158;2023-05-10T11:44:22;12.30;99.90
51500;DHT22;39101;53.478;6.158;2023-05-10T11:46:49;12.20;99.90
51500;DHT22;39101;53.478;6.158;2023-05-10T11:49:15;12.40;99.90
51500;DHT22;39101;53.478;6.158;2023-05-10T11:51:40;12.30;99.90
51500;DHT22;39101;53.478;6.158;2023-05-10T11:54:10;12.50;99.90
51500;DHT22;39101;53.478;6.158;2023-05-10T11:56:37;12.50;99.90
51500;DHT22;39101;53.478;6.158;2023-05-10T11:59:03;12.40;99.90
51500;DHT22;39101;53.478;6.158;2023-05-10T12:01:30;12.20;99.90
51500;DHT22;39101;53.478;6.158;2023-05-10T12:03:57;12.50;99.90
51500;DHT22;39101;53.478;6.158;2023-05-10T12:06:27;12.60;99.90
51500;DHT22;39101;53.478;6.158;2023-05-10T12:08:54;12.70;99.90
51500;DHT22;39101;53.478;6.158;2023-05-10T12:11:20;12.40;99.90
51500;DHT22;39101;53.478;6.158;2023-05-10T12:13:47;12.60;99.90
51500;DHT22;39101;53.478;6.158;2023-05-10T12:16:21;12.40;99.90
51500;DHT22;39101;53.478;6.158;2023-05-10T12:18:51;12.50;99.90
51500;DHT22;39101;53.478;6.158;2023-05-10T12:21:17;12.80;99.90
51500;DHT22;39101;53.478;6.158;2023-05-10T12:23:45;12.60;99.90
51500;DHT22;39101;53.478;6.158;2023-05-10T12:26:11;12.90;99.90
51500;DHT22;39101;53.478;6.158;2023-05-10T12:28:37;12.90;99.90
51500;DHT22;39101;53.478;6.158;2023-05-10T12:31:05;13.00;99.90
51500;DHT22;39101;53.478;6.158;2023-05-10T12:33:42;13.00;99.90
51500;DHT22;39101;53.478;6.158;2023-05-10T12:36:12;12.90;99.90
51500;DHT22;39101;53.478;6.158;2023-05-10T12:38:42;13.20;99.90
51500;DHT22;39101;53.478;6.158;2023-05-10T12:41:17;13.20;99.90
51500;DHT22;39101;53.478;6.158;2023-05-10T12:43:43;13.00;99.90
51500;DHT22;39101;53.478;6.158;2023-05-10T12:46:11;13.10;99.90
51500;DHT22;39101;53.478;6.158;2023-05-10T12:48:38;13.10;99.90
51500;DHT22;39101;53.478;6.158;2023-05-10T12:51:05;13.30;99.90
51500;DHT22;39101;53.478;6.158;2023-05-10T12:53:34;13.30;99.90
51500;DHT22;39101;53.478;6.158;2023-05-10T12:55:59;13.20;99.90
51500;DHT22;39101;53.478;6.158;2023-05-10T12:58:25;13.00;99.90
51500;DHT22;39101;53.478;6.158;2023-05-10T13:00:51;13.20;99.90
51500;DHT22;39101;53.478;6.158;2023-05-10T13:03:17;13.30;99.90
51500;DHT22;39101;53.478;6.158;2023-05-10T13:05:43;13.40;99.90
51500;DHT22;39101;53.478;6.158;2023-05-10T13:08:08;13.20;99.90
51500;DHT22;39101;53.478;6.158;2023-05-10T13:10:34;13.00;99.90
51500;DHT22;39101;53.478;6.158;2023-05-10T13:13:00;13.10;99.90
51500;DHT22;39101;53.478;6.158;2023-05-10T13:15:26;13.00;99.90
51500;DHT22;39101;53.478;6.158;2023-05-10T13:17:53;12.90;99.90
51500;DHT22;39101;53.478;6.158;2023-05-10T13:20:19;12.80;99.90
51500;DHT22;39101;53.478;6.158;2023-05-10T13:22:45;12.80;99.90
51500;DHT22;39101;53.478;6.158;2023-05-10T13:25:11;12.80;99.90
51500;DHT22;39101;53.478;6.158;2023-05-10T13:27:38;12.70;99.90
51500;DHT22;39101;53.478;6.158;2023-05-10T13:30:05;12.80;99.90
51500;DHT22;39101;53.478;6.158;2023-05-10T13:32:30;12.80;99.90
51500;DHT22;39101;53.478;6.158;2023-05-10T13:34:56;12.80;99.90
51500;DHT22;39101;53.478;6.158;2023-05-10T13:37:22;12.70;99.90
51500;DHT22;39101;53.478;6.158;2023-05-10T13:39:48;12.70;99.90
51500;DHT22;39101;53.478;6.158;2023-05-10T13:42:14;12.50;99.90
51500;DHT22;39101;53.478;6.158;2023-05-10T13:44:39;12.60;99.90
51500;DHT22;39101;53.478;6.158;2023-05-10T13:47:05;12.50;99.90
51500;DHT22;39101;53.478;6.158;2023-05-10T13:49:31;12.70;99.90
51500;DHT22;39101;53.478;6.158;2023-05-10T13:51:57;12.70;99.90
51500;DHT22;39101;53.478;6.158;2023-05-10T13:54:23;12.80;99.90
51500;DHT22;39101;53.478;6.158;2023-05-10T13:56:49;12.60;99.90
51500;DHT22;39101;53.478;6.158;2023-05-10T13:59:15;12.80;99.90
51500;DHT22;39101;53.478;6.158;2023-05-10T14:01:41;12.80;99.90
51500;DHT22;39101;53.478;6.158;2023-05-10T14:04:08;12.60;99.90
51500;DHT22;39101;53.478;6.158;2023-05-10T14:06:38;12.60;99.90
51500;DHT22;39101;53.478;6.158;2023-05-10T14:09:04;12.90;99.90
51500;DHT22;39101;53.478;6.158;2023-05-10T14:11:30;12.70;99.90
51500;DHT22;39101;53.478;6.158;2023-05-10T14:13:55;12.80;99.90
51500;DHT22;39101;53.478;6.158;2023-05-10T14:16:21;12.80;99.90
51500;DHT22;39101;53.478;6.158;2023-05-10T14:18:47;12.90;99.90
51500;DHT22;39101;53.478;6.158;2023-05-10T14:21:13;12.70;99.90
51500;DHT22;39101;53.478;6.158;2023-05-10T14:23:39;12.50;99.90
51500;DHT22;39101;53.478;6.158;2023-05-10T14:26:05;12.60;99.90
51500;DHT22;39101;53.478;6.158;2023-05-10T14:28:30;12.40;99.90
51500;DHT22;39101;53.478;6.158;2023-05-10T14:30:56;12.60;99.90
51500;DHT22;39101;53.478;6.158;2023-05-10T14:33:22;12.60;99.90
51500;DHT22;39101;53.478;6.158;2023-05-10T14:35:48;12.70;99.90
51500;DHT22;39101;53.478;6.158;2023-05-10T14:38:14;12.60;99.90
51500;DHT22;39101;53.478;6.158;2023-05-10T14:40:40;12.50;99.90
51500;DHT22;39101;53.478;6.158;2023-05-10T14:43:05;12.60;99.90
51500;DHT22;39101;53.478;6.158;2023-05-10T14:45:31;12.90;99.90
51500;DHT22;39101;53.478;6.158;2023-05-10T14:47:57;12.80;99.90
51500;DHT22;39101;53.478;6.158;2023-05-10T14:50:23;12.90;99.90
51500;DHT22;39101;53.478;6.158;2023-05-10T14:52:49;12.90;99.90
51500;DHT22;39101;53.478;6.158;2023-05-10T14:55:15;12.90;99.90
51500;DHT22;39101;53.478;6.158;2023-05-10T14:57:41;12.70;99.90
51500;DHT22;39101;53.478;6.158;2023-05-10T15:00:07;12.70;99.90
51500;DHT22;39101;53.478;6.158;2023-05-10T15:02:33;12.50;99.90
51500;DHT22;39101;53.478;6.158;2023-05-10T15:04:59;12.50;99.90
51500;DHT22;39101;53.478;6.158;2023-05-10T15:07:24;12.30;99.90
51500;DHT22;39101;53.478;6.158;2023-05-10T15:09:50;12.40;99.90
51500;DHT22;39101;53.478;6.158;2023-05-10T15:12:17;12.20;99.90
51500;DHT22;39101;53.478;6.158;2023-05-10T15:14:43;12.20;99.90
51500;DHT22;39101;53.478;6.158;2023-05-10T15:17:09;12.20;99.90
51500;DHT22;39101;53.478;6.158;2023-05-10T15:19:35;12.20;99.90
51500;DHT22;39101;53.478;6.158;2023-05-10T15:22:02;12.10;99.90
51500;DHT22;39101;53.478;6.158;2023-05-10T15:24:28;12.20;99.90
51500;DHT22;39101;53.478;6.158;2023-05-10T15:26:54;12.20;99.90
51500;DHT22;39101;53.478;6.158;2023-05-10T15:29:19;12.10;99.90
51500;DHT22;39101;53.478;6.158;2023-05-10T15:31:49;12.10;99.90
51500;DHT22;39101;53.478;6.158;2023-05-10T15:34:16;12.20;99.90
51500;DHT22;39101;53.478;6.158;2023-05-10T15:36:42;12.00;99.90
51500;DHT22;39101;53.478;6.158;2023-05-10T15:39:08;11.80;99.90
51500;DHT22;39101;53.478;6.158;2023-05-10T15:41:35;11.80;99.90
51500;DHT22;39101;53.478;6.158;2023-05-10T15:44:00;11.80;99.90
51500;DHT22;39101;53.478;6.158;2023-05-10T15:46:27;11.80;99.90
51500;DHT22;39101;53.478;6.158;2023-05-10T15:48:53;11.80;99.90
51500;DHT22;39101;53.478;6.158;2023-05-10T15:51:19;11.60;99.90
51500;DHT22;39101;53.478;6.158;2023-05-10T15:53:45;11.70;99.90
51500;DHT22;39101;53.478;6.158;2023-05-10T15:56:11;11.80;99.90
51500;DHT22;39101;53.478;6.158;2023-05-10T15:58:40;11.70;99.90
51500;DHT22;39101;53.478;6.158;2023-05-10T16:01:06;11.50;99.90
51500;DHT22;39101;53.478;6.158;2023-05-10T16:03:33;11.40;99.90
51500;DHT22;39101;53.478;6.158;2023-05-10T16:05:59;11.50;99.90